sensor_id;sensor_type;location;lat;lon;timestamp;P1;durP1;ratioP1;P2;durP2;ratioP2
48767;SDS011;34933;40.968;14.538;2022-07-03T00:02:38;18.73;;;9.27;;
48767;SDS011;34933;40.968;14.538;2022-07-03T00:05:22;20.17;;;9.80;;
48767;SDS011;34933;40.968;14.538;2022-07-03T00:08:08;20.80;;;9.82;;
48767;SDS011;34933;40.968;14.538;2022-07-03T00:10:53;24.02;;;10.27;;
48767;SDS011;34933;40.968;14.538;2022-07-03T00:13:38;19.10;;;9.45;;
48767;SDS011;34933;40.968;14.538;2022-07-03T00:16:23;22.20;;;10.13;;
48767;SDS011;34933;40.968;14.538;2022-07-03T00:19:08;20.67;;;10.00;;
48767;SDS011;34933;40.968;14.538;2022-07-03T00:21:55;26.80;;;10.05;;
48767;SDS011;34933;40.968;14.538;2022-07-03T00:27:31;18.25;;;9.07;;
48767;SDS011;34933;40.968;14.538;2022-07-03T00:30:17;19.15;;;8.85;;
48767;SDS011;34933;40.968;14.538;2022-07-03T00:33:02;24.85;;;8.35;;
48767;SDS011;34933;40.968;14.538;2022-07-03T00:35:47;20.08;;;9.05;;
48767;SDS011;34933;40.968;14.538;2022-07-03T00:38:35;15.55;;;8.52;;
48767;SDS011;34933;40.968;14.538;2022-07-03T00:41:29;16.33;;;8.40;;
48767;SDS011;34933;40.968;14.538;2022-07-03T00:44:14;20.13;;;9.43;;
48767;SDS011;34933;40.968;14.538;2022-07-03T00:46:59;21.13;;;8.82;;
48767;SDS011;34933;40.968;14.538;2022-07-03T00:49:49;16.70;;;7.88;;
48767;SDS011;34933;40.968;14.538;2022-07-03T00:52:36;16.33;;;8.45;;
48767;SDS011;34933;40.968;14.538;2022-07-03T00:55:22;20.10;;;8.23;;
48767;SDS011;34933;40.968;14.538;2022-07-03T00:58:10;24.02;;;9.05;;
48767;SDS011;34933;40.968;14.538;2022-07-03T01:01:00;21.17;;;8.18;;
48767;SDS011;34933;40.968;14.538;2022-07-03T01:03:45;16.67;;;7.60;;
48767;SDS011;34933;40.968;14.538;2022-07-03T01:06:33;17.42;;;8.40;;
48767;SDS011;34933;40.968;14.538;2022-07-03T01:09:23;22.00;;;8.55;;
48767;SDS011;34933;40.968;14.538;2022-07-03T01:13:04;19.60;;;8.18;;
48767;SDS011;34933;40.968;14.538;2022-07-03T01:15:32;18.08;;;8.52;;
48767;SDS011;34933;40.968;14.538;2022-07-03T01:18:23;25.38;;;8.68;;
48767;SDS011;34933;40.968;14.538;2022-07-03T01:21:15;21.17;;;8.45;;
48767;SDS011;34933;40.968;14.538;2022-07-03T01:27:10;18.10;;;7.13;;
48767;SDS011;34933;40.968;14.538;2022-07-03T01:33:10;18.67;;;8.10;;
48767;SDS011;34933;40.968;14.538;2022-07-03T01:38:50;14.37;;;6.70;;
48767;SDS011;34933;40.968;14.538;2022-07-03T01:41:35;22.80;;;8.25;;
48767;SDS011;34933;40.968;14.538;2022-07-03T01:44:21;16.17;;;7.68;;
48767;SDS011;34933;40.968;14.538;2022-07-03T01:47:08;18.25;;;7.57;;
48767;SDS011;34933;40.968;14.538;2022-07-03T01:49:53;18.15;;;7.60;;
48767;SDS011;34933;40.968;14.538;2022-07-03T01:52:40;14.32;;;7.55;;
48767;SDS011;34933;40.968;14.538;2022-07-03T01:55:25;16.98;;;7.57;;
48767;SDS011;34933;40.968;14.538;2022-07-03T01:58:17;20.50;;;7.93;;
48767;SDS011;34933;40.968;14.538;2022-07-03T02:12:59;19.38;;;6.40;;
48767;SDS011;34933;40.968;14.538;2022-07-03T02:15:49;16.70;;;8.30;;
48767;SDS011;34933;40.968;14.538;2022-07-03T02:18:37;14.93;;;7.30;;
48767;SDS011;34933;40.968;14.538;2022-07-03T02:21:24;15.10;;;6.68;;
48767;SDS011;34933;40.968;14.538;2022-07-03T02:27:12;17.02;;;7.07;;
48767;SDS011;34933;40.968;14.538;2022-07-03T02:32:57;19.45;;;6.85;;
48767;SDS011;34933;40.968;14.538;2022-07-03T02:35:45;15.75;;;6.63;;
48767;SDS011;34933;40.968;14.538;2022-07-03T02:38:32;14.07;;;6.65;;
48767;SDS011;34933;40.968;14.538;2022-07-03T02:41:18;13.20;;;5.97;;
48767;SDS011;34933;40.968;14.538;2022-07-03T02:44:27;13.30;;;6.10;;
48767;SDS011;34933;40.968;14.538;2022-07-03T02:50:27;13.05;;;5.38;;
48767;SDS011;34933;40.968;14.538;2022-07-03T02:56:19;12.70;;;5.22;;
48767;SDS011;34933;40.968;14.538;2022-07-03T03:03:07;15.70;;;5.95;;
48767;SDS011;34933;40.968;14.538;2022-07-03T03:05:46;15.88;;;5.35;;
48767;SDS011;34933;40.968;14.538;2022-07-03T03:08:43;15.50;;;5.90;;
48767;SDS011;34933;40.968;14.538;2022-07-03T03:11:43;17.88;;;5.70;;
48767;SDS011;34933;40.968;14.538;2022-07-03T03:14:32;16.77;;;5.55;;
48767;SDS011;34933;40.968;14.538;2022-07-03T03:17:28;17.63;;;5.32;;
48767;SDS011;34933;40.968;14.538;2022-07-03T03:20:21;21.42;;;5.45;;
48767;SDS011;34933;40.968;14.538;2022-07-03T03:26:19;10.93;;;5.10;;
48767;SDS011;34933;40.968;14.538;2022-07-03T03:29:15;14.50;;;5.15;;
48767;SDS011;34933;40.968;14.538;2022-07-03T03:32:00;19.60;;;6.05;;
48767;SDS011;34933;40.968;14.538;2022-07-03T03:34:44;18.10;;;6.07;;
48767;SDS011;34933;40.968;14.538;2022-07-03T03:37:30;14.93;;;4.57;;
48767;SDS011;34933;40.968;14.538;2022-07-03T03:40:18;11.95;;;5.07;;
48767;SDS011;34933;40.968;14.538;2022-07-03T03:43:03;10.02;;;4.90;;
48767;SDS011;34933;40.968;14.538;2022-07-03T03:45:47;16.52;;;6.50;;
48767;SDS011;34933;40.968;14.538;2022-07-03T03:48:32;10.50;;;6.03;;
48767;SDS011;34933;40.968;14.538;2022-07-03T03:51:18;12.70;;;5.38;;
48767;SDS011;34933;40.968;14.538;2022-07-03T03:54:02;13.52;;;5.18;;
48767;SDS011;34933;40.968;14.538;2022-07-03T03:56:48;12.88;;;4.97;;
48767;SDS011;34933;40.968;14.538;2022-07-03T03:59:34;14.00;;;4.28;;
48767;SDS011;34933;40.968;14.538;2022-07-03T04:02:19;10.00;;;4.30;;
48767;SDS011;34933;40.968;14.538;2022-07-03T04:05:04;14.07;;;4.82;;
48767;SDS011;34933;40.968;14.538;2022-07-03T04:07:49;10.35;;;3.90;;
48767;SDS011;34933;40.968;14.538;2022-07-03T04:10:33;44.22;;;6.80;;
48767;SDS011;34933;40.968;14.538;2022-07-03T04:13:18;25.80;;;5.10;;
48767;SDS011;34933;40.968;14.538;2022-07-03T04:16:03;22.73;;;4.88;;
48767;SDS011;34933;40.968;14.538;2022-07-03T04:18:48;15.73;;;4.80;;
48767;SDS011;34933;40.968;14.538;2022-07-03T04:21:33;15.30;;;5.00;;
48767;SDS011;34933;40.968;14.538;2022-07-03T04:24:17;16.98;;;4.93;;
48767;SDS011;34933;40.968;14.538;2022-07-03T04:27:02;14.55;;;5.10;;
48767;SDS011;34933;40.968;14.538;2022-07-03T04:29:47;15.85;;;4.60;;
48767;SDS011;34933;40.968;14.538;2022-07-03T04:32:32;13.25;;;4.63;;
48767;SDS011;34933;40.968;14.538;2022-07-03T04:35:17;15.57;;;4.50;;
48767;SDS011;34933;40.968;14.538;2022-07-03T04:38:01;15.43;;;4.32;;
48767;SDS011;34933;40.968;14.538;2022-07-03T04:40:46;16.60;;;5.28;;
48767;SDS011;34933;40.968;14.538;2022-07-03T04:43:31;13.32;;;4.43;;
48767;SDS011;34933;40.968;14.538;2022-07-03T04:46:16;12.52;;;4.05;;
48767;SDS011;34933;40.968;14.538;2022-07-03T04:49:00;10.05;;;4.30;;
48767;SDS011;34933;40.968;14.538;2022-07-03T04:51:45;15.32;;;5.38;;
48767;SDS011;34933;40.968;14.538;2022-07-03T04:54:29;11.80;;;4.53;;
48767;SDS011;34933;40.968;14.538;2022-07-03T04:57:14;19.27;;;5.00;;
48767;SDS011;34933;40.968;14.538;2022-07-03T04:59:59;15.57;;;4.68;;
48767;SDS011;34933;40.968;14.538;2022-07-03T05:02:43;17.27;;;6.22;;
48767;SDS011;34933;40.968;14.538;2022-07-03T05:05:28;19.95;;;8.80;;
48767;SDS011;34933;40.968;14.538;2022-07-03T05:08:12;28.10;;;10.35;;
48767;SDS011;34933;40.968;14.538;2022-07-03T05:10:58;26.73;;;9.80;;
48767;SDS011;34933;40.968;14.538;2022-07-03T05:13:43;24.10;;;10.13;;
48767;SDS011;34933;40.968;14.538;2022-07-03T05:16:28;30.42;;;8.02;;
48767;SDS011;34933;40.968;14.538;2022-07-03T05:19:13;17.55;;;7.22;;
48767;SDS011;34933;40.968;14.538;2022-07-03T05:21:57;15.20;;;7.05;;
48767;SDS011;34933;40.968;14.538;2022-07-03T05:24:42;16.35;;;7.60;;
48767;SDS011;34933;40.968;14.538;2022-07-03T05:27:27;20.83;;;8.93;;
48767;SDS011;34933;40.968;14.538;2022-07-03T05:30:11;32.35;;;8.07;;
48767;SDS011;34933;40.968;14.538;2022-07-03T05:32:57;35.78;;;8.55;;
48767;SDS011;34933;40.968;14.538;2022-07-03T05:35:41;140.43;;;20.70;;
48767;SDS011;34933;40.968;14.538;2022-07-03T05:38:26;21.92;;;7.28;;
48767;SDS011;34933;40.968;14.538;2022-07-03T05:41:29;24.13;;;7.15;;
48767;SDS011;34933;40.968;14.538;2022-07-03T05:44:14;23.45;;;6.50;;
48767;SDS011;34933;40.968;14.538;2022-07-03T05:46:59;17.38;;;8.45;;
48767;SDS011;34933;40.968;14.538;2022-07-03T05:49:43;29.58;;;13.95;;
48767;SDS011;34933;40.968;14.538;2022-07-03T05:52:28;23.23;;;11.20;;
48767;SDS011;34933;40.968;14.538;2022-07-03T05:55:12;33.25;;;11.82;;
48767;SDS011;34933;40.968;14.538;2022-07-03T05:57:57;35.03;;;12.68;;
48767;SDS011;34933;40.968;14.538;2022-07-03T06:00:42;32.10;;;12.40;;
48767;SDS011;34933;40.968;14.538;2022-07-03T06:03:27;42.70;;;13.18;;
48767;SDS011;34933;40.968;14.538;2022-07-03T06:06:12;26.92;;;12.52;;
48767;SDS011;34933;40.968;14.538;2022-07-03T06:08:56;36.72;;;16.67;;
48767;SDS011;34933;40.968;14.538;2022-07-03T06:11:41;44.50;;;19.77;;
48767;SDS011;34933;40.968;14.538;2022-07-03T06:14:25;40.08;;;21.35;;
48767;SDS011;34933;40.968;14.538;2022-07-03T06:17:10;53.35;;;28.65;;
48767;SDS011;34933;40.968;14.538;2022-07-03T06:19:54;62.30;;;33.50;;
48767;SDS011;34933;40.968;14.538;2022-07-03T06:22:40;74.28;;;34.80;;
48767;SDS011;34933;40.968;14.538;2022-07-03T06:25:24;72.38;;;36.92;;
48767;SDS011;34933;40.968;14.538;2022-07-03T06:28:09;61.53;;;32.22;;
48767;SDS011;34933;40.968;14.538;2022-07-03T06:30:53;144.30;;;36.10;;
48767;SDS011;34933;40.968;14.538;2022-07-03T06:33:38;71.88;;;31.45;;
48767;SDS011;34933;40.968;14.538;2022-07-03T06:36:23;61.78;;;28.38;;
48767;SDS011;34933;40.968;14.538;2022-07-03T06:39:07;56.03;;;25.15;;
48767;SDS011;34933;40.968;14.538;2022-07-03T06:41:52;50.15;;;22.02;;
48767;SDS011;34933;40.968;14.538;2022-07-03T06:44:36;50.80;;;19.42;;
48767;SDS011;34933;40.968;14.538;2022-07-03T06:47:21;41.25;;;18.13;;
48767;SDS011;34933;40.968;14.538;2022-07-03T06:50:06;41.45;;;15.77;;
48767;SDS011;34933;40.968;14.538;2022-07-03T06:52:51;43.97;;;13.43;;
48767;SDS011;34933;40.968;14.538;2022-07-03T06:55:35;43.53;;;13.27;;
48767;SDS011;34933;40.968;14.538;2022-07-03T06:58:20;36.42;;;11.27;;
48767;SDS011;34933;40.968;14.538;2022-07-03T07:01:05;34.47;;;11.50;;
48767;SDS011;34933;40.968;14.538;2022-07-03T07:03:49;37.50;;;12.82;;
48767;SDS011;34933;40.968;14.538;2022-07-03T07:06:34;32.47;;;11.82;;
48767;SDS011;34933;40.968;14.538;2022-07-03T07:09:18;36.00;;;13.23;;
48767;SDS011;34933;40.968;14.538;2022-07-03T07:12:03;37.85;;;10.90;;
48767;SDS011;34933;40.968;14.538;2022-07-03T07:14:48;28.50;;;10.75;;
48767;SDS011;34933;40.968;14.538;2022-07-03T07:17:33;32.25;;;10.05;;
48767;SDS011;34933;40.968;14.538;2022-07-03T07:20:17;28.52;;;9.43;;
48767;SDS011;34933;40.968;14.538;2022-07-03T07:23:02;38.60;;;10.10;;
48767;SDS011;34933;40.968;14.538;2022-07-03T07:25:46;28.67;;;9.95;;
48767;SDS011;34933;40.968;14.538;2022-07-03T07:28:31;31.17;;;10.20;;
48767;SDS011;34933;40.968;14.538;2022-07-03T07:31:17;30.13;;;9.05;;
48767;SDS011;34933;40.968;14.538;2022-07-03T07:34:01;30.90;;;10.00;;
48767;SDS011;34933;40.968;14.538;2022-07-03T07:36:48;29.70;;;9.55;;
48767;SDS011;34933;40.968;14.538;2022-07-03T07:39:32;31.83;;;7.57;;
48767;SDS011;34933;40.968;14.538;2022-07-03T07:42:17;25.17;;;7.80;;
48767;SDS011;34933;40.968;14.538;2022-07-03T07:45:02;41.42;;;12.13;;
48767;SDS011;34933;40.968;14.538;2022-07-03T07:47:47;33.00;;;12.32;;
48767;SDS011;34933;40.968;14.538;2022-07-03T07:50:32;26.85;;;9.68;;
48767;SDS011;34933;40.968;14.538;2022-07-03T07:53:17;25.73;;;10.18;;
48767;SDS011;34933;40.968;14.538;2022-07-03T07:56:02;35.40;;;10.10;;
48767;SDS011;34933;40.968;14.538;2022-07-03T07:58:47;31.10;;;9.68;;
48767;SDS011;34933;40.968;14.538;2022-07-03T08:01:31;26.02;;;8.60;;
48767;SDS011;34933;40.968;14.538;2022-07-03T08:04:34;38.45;;;9.55;;
48767;SDS011;34933;40.968;14.538;2022-07-03T08:07:37;27.52;;;9.70;;
48767;SDS011;34933;40.968;14.538;2022-07-03T08:10:22;27.25;;;7.85;;
48767;SDS011;34933;40.968;14.538;2022-07-03T08:13:07;32.00;;;7.95;;
48767;SDS011;34933;40.968;14.538;2022-07-03T08:15:52;26.33;;;8.35;;
48767;SDS011;34933;40.968;14.538;2022-07-03T08:18:37;29.35;;;8.15;;
48767;SDS011;34933;40.968;14.538;2022-07-03T08:21:21;25.83;;;9.60;;
48767;SDS011;34933;40.968;14.538;2022-07-03T08:24:06;26.10;;;8.50;;
48767;SDS011;34933;40.968;14.538;2022-07-03T08:26:50;24.17;;;7.13;;
48767;SDS011;34933;40.968;14.538;2022-07-03T08:29:35;26.08;;;7.45;;
48767;SDS011;34933;40.968;14.538;2022-07-03T08:32:20;20.55;;;7.72;;
48767;SDS011;34933;40.968;14.538;2022-07-03T08:35:04;19.52;;;7.78;;
48767;SDS011;34933;40.968;14.538;2022-07-03T08:37:49;18.98;;;7.35;;
48767;SDS011;34933;40.968;14.538;2022-07-03T08:40:34;31.90;;;7.32;;
48767;SDS011;34933;40.968;14.538;2022-07-03T08:43:19;25.80;;;7.50;;
48767;SDS011;34933;40.968;14.538;2022-07-03T08:46:04;18.27;;;6.72;;
48767;SDS011;34933;40.968;14.538;2022-07-03T08:48:50;30.40;;;7.85;;
48767;SDS011;34933;40.968;14.538;2022-07-03T08:51:36;28.02;;;7.63;;
48767;SDS011;34933;40.968;14.538;2022-07-03T08:54:21;30.50;;;7.18;;
48767;SDS011;34933;40.968;14.538;2022-07-03T08:57:05;14.40;;;6.65;;
48767;SDS011;34933;40.968;14.538;2022-07-03T08:59:52;19.92;;;6.28;;
48767;SDS011;34933;40.968;14.538;2022-07-03T09:02:38;26.33;;;6.82;;
48767;SDS011;34933;40.968;14.538;2022-07-03T09:05:27;26.00;;;6.78;;
48767;SDS011;34933;40.968;14.538;2022-07-03T09:08:11;19.80;;;6.45;;
48767;SDS011;34933;40.968;14.538;2022-07-03T09:10:56;18.52;;;7.32;;
48767;SDS011;34933;40.968;14.538;2022-07-03T09:13:41;31.77;;;8.18;;
48767;SDS011;34933;40.968;14.538;2022-07-03T09:16:25;22.23;;;6.53;;
48767;SDS011;34933;40.968;14.538;2022-07-03T09:19:10;21.35;;;6.38;;
48767;SDS011;34933;40.968;14.538;2022-07-03T09:21:55;22.02;;;6.25;;
48767;SDS011;34933;40.968;14.538;2022-07-03T09:24:39;17.05;;;6.50;;
48767;SDS011;34933;40.968;14.538;2022-07-03T09:27:24;33.15;;;7.95;;
48767;SDS011;34933;40.968;14.538;2022-07-03T09:30:09;20.15;;;6.07;;
48767;SDS011;34933;40.968;14.538;2022-07-03T09:32:54;21.55;;;6.18;;
48767;SDS011;34933;40.968;14.538;2022-07-03T09:35:38;20.52;;;6.03;;
48767;SDS011;34933;40.968;14.538;2022-07-03T09:38:23;25.15;;;6.68;;
48767;SDS011;34933;40.968;14.538;2022-07-03T09:41:08;17.52;;;6.50;;
48767;SDS011;34933;40.968;14.538;2022-07-03T09:43:53;22.95;;;6.20;;
48767;SDS011;34933;40.968;14.538;2022-07-03T09:46:37;18.88;;;6.30;;
48767;SDS011;34933;40.968;14.538;2022-07-03T09:49:22;27.92;;;6.15;;
48767;SDS011;34933;40.968;14.538;2022-07-03T09:52:06;28.13;;;6.80;;
48767;SDS011;34933;40.968;14.538;2022-07-03T09:54:51;25.90;;;6.65;;
48767;SDS011;34933;40.968;14.538;2022-07-03T09:57:36;18.75;;;6.30;;
48767;SDS011;34933;40.968;14.538;2022-07-03T10:00:41;20.45;;;5.75;;
48767;SDS011;34933;40.968;14.538;2022-07-03T10:03:26;23.02;;;5.50;;
48767;SDS011;34933;40.968;14.538;2022-07-03T10:06:10;18.30;;;5.32;;
48767;SDS011;34933;40.968;14.538;2022-07-03T10:08:55;22.65;;;6.15;;
48767;SDS011;34933;40.968;14.538;2022-07-03T10:11:40;21.15;;;6.15;;
48767;SDS011;34933;40.968;14.538;2022-07-03T10:14:26;26.35;;;6.18;;
48767;SDS011;34933;40.968;14.538;2022-07-03T10:17:12;19.00;;;5.22;;
48767;SDS011;34933;40.968;14.538;2022-07-03T10:19:57;16.20;;;5.53;;
48767;SDS011;34933;40.968;14.538;2022-07-03T10:22:42;17.92;;;4.93;;
48767;SDS011;34933;40.968;14.538;2022-07-03T10:25:31;24.35;;;6.50;;
48767;SDS011;34933;40.968;14.538;2022-07-03T10:28:17;17.95;;;6.07;;
48767;SDS011;34933;40.968;14.538;2022-07-03T10:31:02;15.93;;;4.95;;
48767;SDS011;34933;40.968;14.538;2022-07-03T10:33:48;16.00;;;4.72;;
48767;SDS011;34933;40.968;14.538;2022-07-03T10:36:35;19.23;;;5.32;;
48767;SDS011;34933;40.968;14.538;2022-07-03T10:42:31;20.25;;;5.00;;
48767;SDS011;34933;40.968;14.538;2022-07-03T10:45:37;17.95;;;4.70;;
48767;SDS011;34933;40.968;14.538;2022-07-03T10:48:22;18.92;;;5.32;;
48767;SDS011;34933;40.968;14.538;2022-07-03T10:57:17;23.17;;;6.10;;
48767;SDS011;34933;40.968;14.538;2022-07-03T11:00:06;17.10;;;5.68;;
48767;SDS011;34933;40.968;14.538;2022-07-03T11:02:52;20.17;;;6.03;;
48767;SDS011;34933;40.968;14.538;2022-07-03T11:05:36;13.38;;;5.13;;
48767;SDS011;34933;40.968;14.538;2022-07-03T11:08:21;19.02;;;4.82;;
48767;SDS011;34933;40.968;14.538;2022-07-03T11:11:10;17.50;;;5.03;;
48767;SDS011;34933;40.968;14.538;2022-07-03T11:14:36;12.25;;;4.55;;
48767;SDS011;34933;40.968;14.538;2022-07-03T11:17:21;20.33;;;5.68;;
48767;SDS011;34933;40.968;14.538;2022-07-03T11:20:06;15.48;;;5.07;;
48767;SDS011;34933;40.968;14.538;2022-07-03T11:28:56;14.13;;;4.55;;
48767;SDS011;34933;40.968;14.538;2022-07-03T11:31:40;18.85;;;4.57;;
48767;SDS011;34933;40.968;14.538;2022-07-03T11:34:25;17.58;;;5.30;;
48767;SDS011;34933;40.968;14.538;2022-07-03T11:37:10;20.15;;;11.07;;
48767;SDS011;34933;40.968;14.538;2022-07-03T11:40:03;13.43;;;4.60;;
48767;SDS011;34933;40.968;14.538;2022-07-03T11:42:48;16.08;;;4.30;;
48767;SDS011;34933;40.968;14.538;2022-07-03T11:45:32;14.05;;;4.75;;
48767;SDS011;34933;40.968;14.538;2022-07-03T11:48:19;12.63;;;4.75;;
48767;SDS011;34933;40.968;14.538;2022-07-03T11:51:04;18.08;;;4.25;;
48767;SDS011;34933;40.968;14.538;2022-07-03T11:53:49;21.85;;;4.85;;
48767;SDS011;34933;40.968;14.538;2022-07-03T11:56:35;17.13;;;4.60;;
48767;SDS011;34933;40.968;14.538;2022-07-03T11:59:20;16.33;;;4.82;;
48767;SDS011;34933;40.968;14.538;2022-07-03T12:02:04;13.63;;;4.00;;
48767;SDS011;34933;40.968;14.538;2022-07-03T12:04:49;22.98;;;5.68;;
48767;SDS011;34933;40.968;14.538;2022-07-03T12:07:34;21.85;;;4.70;;
48767;SDS011;34933;40.968;14.538;2022-07-03T12:10:18;14.38;;;4.50;;
48767;SDS011;34933;40.968;14.538;2022-07-03T12:13:03;12.20;;;4.15;;
48767;SDS011;34933;40.968;14.538;2022-07-03T12:15:48;13.23;;;4.43;;
48767;SDS011;34933;40.968;14.538;2022-07-03T12:21:36;14.35;;;4.28;;
48767;SDS011;34933;40.968;14.538;2022-07-03T12:24:22;18.90;;;4.82;;
48767;SDS011;34933;40.968;14.538;2022-07-03T12:27:06;16.17;;;4.95;;
48767;SDS011;34933;40.968;14.538;2022-07-03T12:29:51;18.50;;;5.60;;
48767;SDS011;34933;40.968;14.538;2022-07-03T12:32:37;18.20;;;5.10;;
48767;SDS011;34933;40.968;14.538;2022-07-03T12:35:26;13.90;;;5.50;;
48767;SDS011;34933;40.968;14.538;2022-07-03T12:38:28;12.98;;;4.78;;
48767;SDS011;34933;40.968;14.538;2022-07-03T12:41:13;17.25;;;4.85;;
48767;SDS011;34933;40.968;14.538;2022-07-03T12:43:59;19.92;;;5.80;;
48767;SDS011;34933;40.968;14.538;2022-07-03T12:46:45;12.63;;;4.65;;
48767;SDS011;34933;40.968;14.538;2022-07-03T12:49:29;22.70;;;6.38;;
48767;SDS011;34933;40.968;14.538;2022-07-03T12:52:14;14.43;;;5.32;;
48767;SDS011;34933;40.968;14.538;2022-07-03T12:54:59;12.25;;;4.70;;
48767;SDS011;34933;40.968;14.538;2022-07-03T12:57:45;15.70;;;5.38;;
48767;SDS011;34933;40.968;14.538;2022-07-03T13:00:48;22.67;;;5.15;;
48767;SDS011;34933;40.968;14.538;2022-07-03T13:03:36;14.57;;;5.32;;
48767;SDS011;34933;40.968;14.538;2022-07-03T13:06:23;21.77;;;5.57;;
48767;SDS011;34933;40.968;14.538;2022-07-03T13:09:08;15.30;;;5.40;;
48767;SDS011;34933;40.968;14.538;2022-07-03T13:11:53;20.02;;;5.40;;
48767;SDS011;34933;40.968;14.538;2022-07-03T13:14:37;13.05;;;5.65;;
48767;SDS011;34933;40.968;14.538;2022-07-03T13:17:22;18.05;;;5.63;;
48767;SDS011;34933;40.968;14.538;2022-07-03T13:20:07;15.05;;;5.57;;
48767;SDS011;34933;40.968;14.538;2022-07-03T13:23:10;15.20;;;5.40;;
48767;SDS011;34933;40.968;14.538;2022-07-03T13:25:54;13.43;;;5.70;;
48767;SDS011;34933;40.968;14.538;2022-07-03T13:28:39;13.80;;;4.88;;
48767;SDS011;34933;40.968;14.538;2022-07-03T13:31:24;17.15;;;5.07;;
48767;SDS011;34933;40.968;14.538;2022-07-03T13:34:09;17.38;;;4.90;;
48767;SDS011;34933;40.968;14.538;2022-07-03T13:36:53;15.20;;;5.03;;
48767;SDS011;34933;40.968;14.538;2022-07-03T13:39:38;15.07;;;5.35;;
48767;SDS011;34933;40.968;14.538;2022-07-03T13:42:23;11.00;;;4.53;;
48767;SDS011;34933;40.968;14.538;2022-07-03T13:45:07;14.82;;;5.38;;
48767;SDS011;34933;40.968;14.538;2022-07-03T13:47:52;15.27;;;5.22;;
48767;SDS011;34933;40.968;14.538;2022-07-03T13:50:37;12.73;;;4.57;;
48767;SDS011;34933;40.968;14.538;2022-07-03T13:53:22;12.98;;;4.13;;
48767;SDS011;34933;40.968;14.538;2022-07-03T13:56:06;18.60;;;5.18;;
48767;SDS011;34933;40.968;14.538;2022-07-03T13:58:51;16.33;;;5.20;;
48767;SDS011;34933;40.968;14.538;2022-07-03T14:01:38;12.18;;;5.10;;
48767;SDS011;34933;40.968;14.538;2022-07-03T14:04:23;21.33;;;5.68;;
48767;SDS011;34933;40.968;14.538;2022-07-03T14:07:08;15.07;;;5.70;;
48767;SDS011;34933;40.968;14.538;2022-07-03T14:09:53;16.10;;;5.72;;
48767;SDS011;34933;40.968;14.538;2022-07-03T14:12:38;23.30;;;6.00;;
48767;SDS011;34933;40.968;14.538;2022-07-03T14:15:22;13.73;;;5.45;;
48767;SDS011;34933;40.968;14.538;2022-07-03T14:18:07;20.05;;;7.15;;
48767;SDS011;34933;40.968;14.538;2022-07-03T14:20:51;15.57;;;7.47;;
48767;SDS011;34933;40.968;14.538;2022-07-03T14:23:36;16.27;;;7.30;;
48767;SDS011;34933;40.968;14.538;2022-07-03T14:26:21;21.77;;;8.73;;
48767;SDS011;34933;40.968;14.538;2022-07-03T14:29:24;19.08;;;8.20;;
48767;SDS011;34933;40.968;14.538;2022-07-03T14:32:27;17.13;;;7.85;;
48767;SDS011;34933;40.968;14.538;2022-07-03T14:35:15;24.17;;;8.52;;
48767;SDS011;34933;40.968;14.538;2022-07-03T14:38:00;16.60;;;6.43;;
48767;SDS011;34933;40.968;14.538;2022-07-03T14:40:45;18.27;;;6.60;;
48767;SDS011;34933;40.968;14.538;2022-07-03T14:43:29;12.73;;;6.30;;
48767;SDS011;34933;40.968;14.538;2022-07-03T14:46:14;22.90;;;6.40;;
48767;SDS011;34933;40.968;14.538;2022-07-03T14:48:59;12.43;;;6.65;;
48767;SDS011;34933;40.968;14.538;2022-07-03T14:51:43;16.10;;;7.50;;
48767;SDS011;34933;40.968;14.538;2022-07-03T14:54:28;17.27;;;8.45;;
48767;SDS011;34933;40.968;14.538;2022-07-03T14:57:26;16.13;;;8.23;;
48767;SDS011;34933;40.968;14.538;2022-07-03T15:00:18;16.20;;;6.97;;
48767;SDS011;34933;40.968;14.538;2022-07-03T15:03:07;14.68;;;6.03;;
48767;SDS011;34933;40.968;14.538;2022-07-03T15:05:57;22.33;;;5.93;;
48767;SDS011;34933;40.968;14.538;2022-07-03T15:08:47;15.07;;;5.03;;
48767;SDS011;34933;40.968;14.538;2022-07-03T15:11:39;10.68;;;5.47;;
48767;SDS011;34933;40.968;14.538;2022-07-03T15:14:48;16.70;;;6.20;;
48767;SDS011;34933;40.968;14.538;2022-07-03T15:17:35;17.33;;;6.00;;
48767;SDS011;34933;40.968;14.538;2022-07-03T15:20:20;16.67;;;5.85;;
48767;SDS011;34933;40.968;14.538;2022-07-03T15:23:07;15.40;;;6.05;;
48767;SDS011;34933;40.968;14.538;2022-07-03T15:25:52;12.80;;;6.18;;
48767;SDS011;34933;40.968;14.538;2022-07-03T15:28:37;17.83;;;6.65;;
48767;SDS011;34933;40.968;14.538;2022-07-03T15:31:22;14.18;;;5.85;;
48767;SDS011;34933;40.968;14.538;2022-07-03T15:34:06;16.00;;;5.40;;
48767;SDS011;34933;40.968;14.538;2022-07-03T15:36:53;12.38;;;4.47;;
48767;SDS011;34933;40.968;14.538;2022-07-03T15:45:45;11.02;;;4.60;;
48767;SDS011;34933;40.968;14.538;2022-07-03T15:55:02;18.40;;;4.47;;
48767;SDS011;34933;40.968;14.538;2022-07-03T16:00:54;16.17;;;3.47;;
48767;SDS011;34933;40.968;14.538;2022-07-03T16:06:51;18.65;;;4.20;;
48767;SDS011;34933;40.968;14.538;2022-07-03T16:09:37;22.38;;;3.97;;
48767;SDS011;34933;40.968;14.538;2022-07-03T16:12:25;10.52;;;3.13;;
48767;SDS011;34933;40.968;14.538;2022-07-03T16:15:11;16.58;;;3.17;;
48767;SDS011;34933;40.968;14.538;2022-07-03T16:17:56;16.73;;;3.97;;
48767;SDS011;34933;40.968;14.538;2022-07-03T16:20:41;7.03;;;2.90;;
48767;SDS011;34933;40.968;14.538;2022-07-03T16:23:27;17.02;;;3.63;;
48767;SDS011;34933;40.968;14.538;2022-07-03T16:26:13;12.95;;;2.90;;
48767;SDS011;34933;40.968;14.538;2022-07-03T16:28:59;12.73;;;2.90;;
48767;SDS011;34933;40.968;14.538;2022-07-03T16:31:44;25.27;;;3.83;;
48767;SDS011;34933;40.968;14.538;2022-07-03T16:34:34;12.77;;;3.53;;
48767;SDS011;34933;40.968;14.538;2022-07-03T16:37:28;17.35;;;3.47;;
48767;SDS011;34933;40.968;14.538;2022-07-03T16:40:28;9.00;;;2.78;;
48767;SDS011;34933;40.968;14.538;2022-07-03T16:43:14;10.63;;;3.03;;
48767;SDS011;34933;40.968;14.538;2022-07-03T16:46:03;11.32;;;3.78;;
48767;SDS011;34933;40.968;14.538;2022-07-03T16:48:52;16.00;;;3.75;;
48767;SDS011;34933;40.968;14.538;2022-07-03T16:51:39;15.68;;;3.83;;
48767;SDS011;34933;40.968;14.538;2022-07-03T16:54:26;10.48;;;4.00;;
48767;SDS011;34933;40.968;14.538;2022-07-03T16:57:11;12.80;;;4.20;;
48767;SDS011;34933;40.968;14.538;2022-07-03T16:59:55;15.43;;;3.65;;
48767;SDS011;34933;40.968;14.538;2022-07-03T17:02:42;12.77;;;3.45;;
48767;SDS011;34933;40.968;14.538;2022-07-03T17:05:27;14.75;;;3.38;;
48767;SDS011;34933;40.968;14.538;2022-07-03T17:08:14;21.42;;;3.42;;
48767;SDS011;34933;40.968;14.538;2022-07-03T17:11:00;13.68;;;3.20;;
48767;SDS011;34933;40.968;14.538;2022-07-03T17:13:46;12.82;;;3.97;;
48767;SDS011;34933;40.968;14.538;2022-07-03T17:16:30;21.90;;;3.35;;
48767;SDS011;34933;40.968;14.538;2022-07-03T17:19:24;12.40;;;3.72;;
48767;SDS011;34933;40.968;14.538;2022-07-03T17:22:09;12.63;;;3.95;;
48767;SDS011;34933;40.968;14.538;2022-07-03T17:24:57;18.17;;;3.83;;
48767;SDS011;34933;40.968;14.538;2022-07-03T17:27:45;16.55;;;3.67;;
48767;SDS011;34933;40.968;14.538;2022-07-03T17:33:22;12.27;;;3.67;;
48767;SDS011;34933;40.968;14.538;2022-07-03T17:36:13;11.90;;;3.67;;
48767;SDS011;34933;40.968;14.538;2022-07-03T17:39:01;18.73;;;3.83;;